createdAt,value
2018-02-13T00:01:50.181Z,5.30
2018-02-13T00:04:18.101Z,5.27
2018-02-13T00:06:46.046Z,5.71
2018-02-13T00:09:14.042Z,5.98
2018-02-13T00:11:42.021Z,5.48
2018-02-13T00:14:09.930Z,5.73
2018-02-13T00:16:37.859Z,6.00
2018-02-13T00:19:05.838Z,6.12
2018-02-13T00:21:34.032Z,6.19
2018-02-13T00:24:02.046Z,6.36
2018-02-13T00:26:30.019Z,6.43
2018-02-13T00:28:57.930Z,6.48
2018-02-13T00:31:25.958Z,6.47
2018-02-13T00:33:53.887Z,6.17
2018-02-13T00:36:21.786Z,5.83
2018-02-13T00:38:49.753Z,6.04
2018-02-13T00:41:17.726Z,6.24
2018-02-13T00:43:45.703Z,5.69
2018-02-13T00:46:13.648Z,5.42
2018-02-13T00:48:41.662Z,5.51
2018-02-13T00:51:10.071Z,5.64
2018-02-13T00:53:38.046Z,5.05
2018-02-13T00:56:06.021Z,4.61
2018-02-13T00:58:33.994Z,4.55
2018-02-13T01:01:02.026Z,4.39
2018-02-13T01:03:30.009Z,4.53
2018-02-13T01:05:58.006Z,4.54
2018-02-13T01:08:25.953Z,4.58
2018-02-13T01:10:53.991Z,5.10
2018-02-13T01:13:21.885Z,5.41
2018-02-13T01:15:49.951Z,5.23
2018-02-13T01:18:17.866Z,4.71
2018-02-13T01:20:45.927Z,4.86
2018-02-13T01:23:13.962Z,5.50
2018-02-13T01:25:42.071Z,5.66
2018-02-13T01:28:10.026Z,5.69
2018-02-13T01:30:37.993Z,5.60
2018-02-13T01:33:05.970Z,5.40
2018-02-13T01:35:33.806Z,5.64
2018-02-13T01:38:01.771Z,5.96
2018-02-13T01:40:29.719Z,6.11
2018-02-13T01:42:57.770Z,6.05
2018-02-13T01:45:25.754Z,5.58
2018-02-13T01:47:53.766Z,5.53
2018-02-13T01:50:26.702Z,5.69
2018-02-13T01:52:55.089Z,5.48
2018-02-13T01:55:23.071Z,5.93
2018-02-13T01:57:51.030Z,6.14
2018-02-13T02:00:18.922Z,6.18
2018-02-13T02:02:46.801Z,6.11
2018-02-13T02:05:14.742Z,5.92
2018-02-13T02:07:42.694Z,5.67
2018-02-13T02:10:10.610Z,5.76
2018-02-13T02:12:38.602Z,5.36
2018-02-13T02:15:06.518Z,5.65
2018-02-13T02:17:34.503Z,5.59
2018-02-13T02:20:02.497Z,5.80
2018-02-13T02:22:30.511Z,5.72
2018-02-13T02:24:58.517Z,5.52
2018-02-13T02:27:26.705Z,6.00
2018-02-13T02:29:54.658Z,6.41
2018-02-13T02:32:22.635Z,6.62
2018-02-13T02:34:50.613Z,6.78
2018-02-13T02:37:18.593Z,6.55
2018-02-13T02:39:46.584Z,6.53
2018-02-13T02:42:14.565Z,6.58
2018-02-13T02:44:42.487Z,6.62
2018-02-13T02:47:10.457Z,6.94
2018-02-13T02:49:38.419Z,7.01
2018-02-13T02:52:06.367Z,6.90
2018-02-13T02:54:34.818Z,7.03
2018-02-13T02:57:02.832Z,6.82
2018-02-13T02:59:30.786Z,6.77
2018-02-13T03:01:58.770Z,6.41
2018-02-13T03:04:26.651Z,6.59
2018-02-13T03:06:54.599Z,6.74
2018-02-13T03:09:22.667Z,6.69
2018-02-13T03:11:50.590Z,6.70
2018-02-13T03:14:18.686Z,6.65
2018-02-13T03:16:46.735Z,5.95
2018-02-13T03:19:14.562Z,5.26
2018-02-13T03:21:42.545Z,5.08
2018-02-13T03:24:10.493Z,4.75
2018-02-13T03:26:38.454Z,4.86
2018-02-13T03:29:06.431Z,4.99
2018-02-13T03:31:34.386Z,4.80
2018-02-13T03:34:02.366Z,4.49
2018-02-13T03:36:30.293Z,4.61
2018-02-13T03:38:58.265Z,5.07
2018-02-13T03:41:26.205Z,5.01
2018-02-13T03:43:54.206Z,5.66
2018-02-13T03:46:22.221Z,6.15
2018-02-13T03:48:50.167Z,6.40
2018-02-13T03:51:18.179Z,6.39
2018-02-13T03:53:46.156Z,6.13
2018-02-13T03:56:14.447Z,6.30
2018-02-13T03:58:42.409Z,5.94
2018-02-13T04:01:10.378Z,5.49
2018-02-13T04:03:38.327Z,5.94
2018-02-13T04:06:06.299Z,6.26
2018-02-13T04:08:34.298Z,6.51
2018-02-13T04:11:02.329Z,6.24
2018-02-13T04:13:30.337Z,5.96
2018-02-13T04:15:58.354Z,5.76
2018-02-13T04:18:26.366Z,5.51
2018-02-13T04:20:54.348Z,5.64
2018-02-13T04:23:22.314Z,6.02
2018-02-13T04:25:50.290Z,6.48
2018-02-13T04:28:18.319Z,6.55
2018-02-13T04:30:46.341Z,6.45
2018-02-13T04:33:14.330Z,6.44
2018-02-13T04:35:42.310Z,6.29
2018-02-13T04:38:10.357Z,6.10
2018-02-13T04:40:38.313Z,6.23
2018-02-13T04:43:06.263Z,6.00
2018-02-13T04:45:34.302Z,5.84
2018-02-13T04:48:02.305Z,6.17
2018-02-13T04:50:31.385Z,6.31
2018-02-13T04:52:59.369Z,6.41
2018-02-13T04:55:27.353Z,6.08
2018-02-13T04:57:55.593Z,6.30
2018-02-13T05:00:23.574Z,5.70
2018-02-13T05:02:51.543Z,6.08
2018-02-13T05:05:19.476Z,6.28
2018-02-13T05:07:47.392Z,6.11
2018-02-13T05:10:15.350Z,6.30
2018-02-13T05:12:43.301Z,6.42
2018-02-13T05:15:11.291Z,6.49
2018-02-13T05:17:39.269Z,6.39
2018-02-13T05:20:07.221Z,6.46
2018-02-13T05:22:35.210Z,6.54
2018-02-13T05:25:03.198Z,6.63
2018-02-13T05:27:31.177Z,6.00
2018-02-13T05:29:59.151Z,6.06
2018-02-13T05:32:27.200Z,6.03
2018-02-13T05:34:55.173Z,6.32
2018-02-13T05:37:23.218Z,6.33
2018-02-13T05:39:51.179Z,6.39
2018-02-13T05:42:19.105Z,5.77
2018-02-13T05:44:47.138Z,5.98
2018-02-13T05:47:15.162Z,5.81
2018-02-13T05:49:43.094Z,5.70
2018-02-13T05:52:11.139Z,5.73
2018-02-13T05:54:39.255Z,6.13
2018-02-13T05:57:07.173Z,5.93
2018-02-13T05:59:35.910Z,5.94
2018-02-13T06:02:03.879Z,5.52
2018-02-13T06:04:31.823Z,5.80
2018-02-13T06:06:59.819Z,6.14
2018-02-13T06:09:27.821Z,5.94
2018-02-13T06:11:55.750Z,5.84
2018-02-13T06:14:23.728Z,5.97
2018-02-13T06:16:51.759Z,6.09
2018-02-13T06:19:19.679Z,5.95
2018-02-13T06:21:47.646Z,6.00
2018-02-13T06:24:15.609Z,6.11
2018-02-13T06:26:43.559Z,6.32
2018-02-13T06:29:11.736Z,6.15
2018-02-13T06:31:40.031Z,6.56
2018-02-13T06:34:08.510Z,6.87
2018-02-13T06:36:36.989Z,6.14
2018-02-13T06:39:05.964Z,6.12
2018-02-13T06:41:34.262Z,6.44
2018-02-13T06:44:02.163Z,6.08
2018-02-13T06:46:30.810Z,6.03
2018-02-13T06:48:58.690Z,6.14
2018-02-13T06:51:26.615Z,6.28
2018-02-13T06:53:54.664Z,6.49
2018-02-13T06:56:22.657Z,6.74
2018-02-13T06:58:50.639Z,6.70
2018-02-13T07:01:19.134Z,6.47
2018-02-13T07:03:47.131Z,6.63
2018-02-13T07:06:15.047Z,6.77
2018-02-13T07:08:42.987Z,6.71
2018-02-13T07:11:10.957Z,7.03
2018-02-13T07:13:38.906Z,7.23
2018-02-13T07:16:06.886Z,6.75
2018-02-13T07:18:34.843Z,6.44
2018-02-13T07:21:02.826Z,6.06
2018-02-13T07:23:30.838Z,6.18
2018-02-13T07:25:58.794Z,5.62
2018-02-13T07:28:26.898Z,5.64
2018-02-13T07:30:54.766Z,6.19
2018-02-13T07:33:22.742Z,6.03
2018-02-13T07:35:50.845Z,5.80
2018-02-13T07:38:18.847Z,6.43
2018-02-13T07:40:46.764Z,6.66
2018-02-13T07:43:14.751Z,6.13
2018-02-13T07:45:42.669Z,6.14
2018-02-13T07:48:10.666Z,6.04
2018-02-13T07:50:38.646Z,6.02
2018-02-13T07:53:06.651Z,5.89
2018-02-13T07:55:34.610Z,5.94
2018-02-13T07:58:02.561Z,6.12
2018-02-13T08:00:30.602Z,6.22
2018-02-13T08:02:58.867Z,6.46
2018-02-13T08:05:26.842Z,6.27
2018-02-13T08:07:54.820Z,5.70
2018-02-13T08:10:22.925Z,5.30
2018-02-13T08:12:50.965Z,5.57
2018-02-13T08:15:19.318Z,5.67
2018-02-13T08:17:47.259Z,6.24
2018-02-13T08:20:15.205Z,6.16
2018-02-13T08:22:43.169Z,6.34
2018-02-13T08:25:11.126Z,5.87
2018-02-13T08:27:39.077Z,6.11
2018-02-13T08:30:07.082Z,5.75
2018-02-13T08:32:35.053Z,5.35
2018-02-13T08:35:02.985Z,5.67
2018-02-13T08:37:31.112Z,5.91
2018-02-13T08:39:59.095Z,6.28
2018-02-13T08:42:27.078Z,5.99
2018-02-13T08:44:55.113Z,5.72
2018-02-13T08:47:23.071Z,5.71
2018-02-13T08:49:51.150Z,6.18
2018-02-13T08:52:19.130Z,6.04
2018-02-13T08:54:47.137Z,6.73
2018-02-13T08:57:15.117Z,6.94
2018-02-13T08:59:43.156Z,7.33
2018-02-13T09:02:11.181Z,6.36
2018-02-13T09:04:39.426Z,6.73
2018-02-13T09:07:07.457Z,6.53
2018-02-13T09:09:35.541Z,6.38
2018-02-13T09:12:03.533Z,6.61
2018-02-13T09:14:31.543Z,6.61
2018-02-13T09:16:59.511Z,6.70
2018-02-13T09:19:27.522Z,6.85
2018-02-13T09:21:55.504Z,6.95
2018-02-13T09:24:23.417Z,6.54
2018-02-13T09:26:51.407Z,6.58
2018-02-13T09:29:19.422Z,6.94
2018-02-13T09:31:47.409Z,7.10
2018-02-13T09:34:15.398Z,7.53
2018-02-13T09:36:43.389Z,7.37
2018-02-13T09:39:11.655Z,7.32
2018-02-13T09:41:39.654Z,7.71
2018-02-13T09:44:07.614Z,7.70
2018-02-13T09:46:35.629Z,8.22
2018-02-13T09:49:03.666Z,7.75
2018-02-13T09:51:31.656Z,8.26
2018-02-13T09:53:59.607Z,8.44
2018-02-13T09:56:27.626Z,8.49
2018-02-13T09:58:55.654Z,7.66
2018-02-13T10:01:23.615Z,7.30
2018-02-13T10:03:51.693Z,7.61
2018-02-13T10:06:20.050Z,8.15
2018-02-13T10:08:48.078Z,8.10
2018-02-13T10:11:16.089Z,7.84
2018-02-13T10:13:44.057Z,7.72
2018-02-13T10:16:12.132Z,8.75
2018-02-13T10:18:40.139Z,9.23
2018-02-13T10:21:08.227Z,9.15
2018-02-13T10:23:36.256Z,8.60
2018-02-13T10:26:04.234Z,8.22
2018-02-13T10:28:32.253Z,8.35
2018-02-13T10:31:00.279Z,8.41
2018-02-13T10:33:28.348Z,7.73
2018-02-13T10:35:56.278Z,8.02
2018-02-13T10:38:24.270Z,8.03
2018-02-13T10:40:52.300Z,7.88
2018-02-13T10:43:20.254Z,8.53
2018-02-13T10:45:48.219Z,8.52
2018-02-13T10:48:16.121Z,9.00
2018-02-13T10:50:44.098Z,8.95
2018-02-13T10:53:12.093Z,9.22
2018-02-13T10:55:40.063Z,9.03
2018-02-13T10:58:08.042Z,9.29
2018-02-13T11:00:41.583Z,8.65
2018-02-13T11:03:09.584Z,9.22
2018-02-13T11:05:37.594Z,9.17
2018-02-13T11:08:05.914Z,9.21
2018-02-13T11:10:33.946Z,9.08
2018-02-13T11:13:01.956Z,9.14
2018-02-13T11:15:30.035Z,8.59
2018-02-13T11:17:58.074Z,8.87
2018-02-13T11:20:26.114Z,9.13
2018-02-13T11:22:54.094Z,9.31
2018-02-13T11:25:22.082Z,9.31
2018-02-13T11:27:50.069Z,8.73
2018-02-13T11:30:18.043Z,9.46
2018-02-13T11:32:46.044Z,10.37
2018-02-13T11:35:13.962Z,10.38
2018-02-13T11:37:41.974Z,10.31
2018-02-13T11:40:09.922Z,10.78
2018-02-13T11:42:38.061Z,11.85
2018-02-13T11:45:06.051Z,10.36
2018-02-13T11:47:34.037Z,11.12
2018-02-13T11:50:01.999Z,11.99
2018-02-13T11:52:29.999Z,11.46
2018-02-13T11:54:57.980Z,11.21
2018-02-13T11:57:25.907Z,10.32
2018-02-13T11:59:53.899Z,9.35
2018-02-13T12:02:21.903Z,9.47
2018-02-13T12:04:49.927Z,9.56
2018-02-13T12:07:17.967Z,9.23
2018-02-13T12:09:46.148Z,9.90
2018-02-13T12:12:14.238Z,10.05
2018-02-13T12:14:42.222Z,9.98
2018-02-13T12:17:10.221Z,9.29
2018-02-13T12:19:38.144Z,8.84
2018-02-13T12:22:06.125Z,8.81
2018-02-13T12:24:34.177Z,9.22
2018-02-13T12:27:02.041Z,9.11
2018-02-13T12:29:30.025Z,8.90
2018-02-13T12:31:58.138Z,9.31
2018-02-13T12:34:26.175Z,9.12
2018-02-13T12:36:54.181Z,8.61
2018-02-13T12:39:22.162Z,8.49
2018-02-13T12:41:50.190Z,8.54
2018-02-13T12:44:18.538Z,9.12
2018-02-13T12:46:46.513Z,9.51
2018-02-13T12:49:14.600Z,9.62
2018-02-13T12:51:42.574Z,8.88
2018-02-13T12:54:10.599Z,9.11
2018-02-13T12:56:38.609Z,9.03
2018-02-13T12:59:06.697Z,9.12
2018-02-13T13:01:34.654Z,8.53
2018-02-13T13:04:03.635Z,9.11
2018-02-13T13:06:31.659Z,8.63
2018-02-13T13:08:59.709Z,8.74
2018-02-13T13:11:28.125Z,8.76
2018-02-13T13:13:56.115Z,8.26
2018-02-13T13:16:24.068Z,8.91
2018-02-13T13:18:51.958Z,9.10
2018-02-13T13:21:19.955Z,8.78
2018-02-13T13:23:47.983Z,9.17
2018-02-13T13:26:15.984Z,9.31
2018-02-13T13:28:43.995Z,8.99
2018-02-13T13:31:12.010Z,9.34
2018-02-13T13:33:40.003Z,8.73
2018-02-13T13:36:08.012Z,8.49
2018-02-13T13:38:35.996Z,8.77
2018-02-13T13:41:03.991Z,8.95
2018-02-13T13:43:31.994Z,8.41
2018-02-13T13:46:00.265Z,8.14
2018-02-13T13:48:28.687Z,8.00
2018-02-13T13:50:56.609Z,8.14
2018-02-13T13:53:24.604Z,8.54
2018-02-13T13:55:52.602Z,8.30
2018-02-13T13:58:20.575Z,8.34
2018-02-13T14:00:48.534Z,8.63
2018-02-13T14:03:16.551Z,8.68
2018-02-13T14:05:44.542Z,8.82
2018-02-13T14:08:12.512Z,8.74
2018-02-13T14:10:40.477Z,8.62
2018-02-13T14:13:08.670Z,8.33
2018-02-13T14:15:36.654Z,7.77
2018-02-13T14:18:04.657Z,7.74
2018-02-13T14:20:32.638Z,7.71
2018-02-13T14:23:00.641Z,7.35
2018-02-13T14:25:28.608Z,7.14
2018-02-13T14:27:56.593Z,7.07
2018-02-13T14:30:24.588Z,6.79
2018-02-13T14:32:52.617Z,6.80
2018-02-13T14:35:20.605Z,6.85
2018-02-13T14:37:48.626Z,6.74
2018-02-13T14:40:16.610Z,7.04
2018-02-13T14:42:44.670Z,7.01
2018-02-13T14:45:12.663Z,6.90
2018-02-13T14:47:40.613Z,6.69
2018-02-13T14:50:08.570Z,6.56
2018-02-13T14:52:36.506Z,6.54
2018-02-13T14:55:04.449Z,6.58
2018-02-13T14:57:32.429Z,6.58
2018-02-13T15:00:00.480Z,6.70
2018-02-13T15:02:28.466Z,6.63
2018-02-13T15:04:56.450Z,6.76
2018-02-13T15:07:24.445Z,6.97
2018-02-13T15:09:52.426Z,6.80
2018-02-13T15:12:20.499Z,6.91
2018-02-13T15:14:48.897Z,6.70
2018-02-13T15:17:22.051Z,7.00
2018-02-13T15:19:52.067Z,7.07
2018-02-13T15:22:20.007Z,6.64
2018-02-13T15:24:48.016Z,6.63
2018-02-13T15:27:16.029Z,6.70
2018-02-13T15:29:44.165Z,6.67
2018-02-13T15:32:12.194Z,6.68
2018-02-13T15:34:40.151Z,6.93
2018-02-13T15:37:08.110Z,6.78
2018-02-13T15:39:36.255Z,6.58
2018-02-13T15:42:04.194Z,6.69
2018-02-13T15:44:32.173Z,6.93
2018-02-13T15:47:05.065Z,6.96
2018-02-13T15:49:33.462Z,7.06
2018-02-13T15:52:01.821Z,6.72
2018-02-13T15:54:29.794Z,6.98
2018-02-13T15:56:57.861Z,6.77
2018-02-13T15:59:25.771Z,6.55
2018-02-13T16:01:53.768Z,6.52
2018-02-13T16:04:21.754Z,6.38
2018-02-13T16:06:49.706Z,6.13
2018-02-13T16:09:17.705Z,6.00
2018-02-13T16:11:45.690Z,6.11
2018-02-13T16:14:13.677Z,6.10
2018-02-13T16:16:41.936Z,6.02
2018-02-13T16:19:09.803Z,5.89
2018-02-13T16:21:37.754Z,5.69
2018-02-13T16:24:05.738Z,5.94
2018-02-13T16:26:33.734Z,6.03
2018-02-13T16:29:01.826Z,5.69
2018-02-13T16:31:29.710Z,5.50
2018-02-13T16:33:57.962Z,5.47
2018-02-13T16:36:25.910Z,5.61
2018-02-13T16:38:53.937Z,5.61
2018-02-13T16:41:21.870Z,5.64
2018-02-13T16:43:49.856Z,5.72
2018-02-13T16:46:17.883Z,5.68
2018-02-13T16:48:45.883Z,5.50
2018-02-13T16:51:13.815Z,5.47
2018-02-13T16:53:41.801Z,5.54
2018-02-13T16:56:09.818Z,5.55
2018-02-13T16:58:37.819Z,5.49
2018-02-13T17:01:05.832Z,5.60
2018-02-13T17:03:33.774Z,5.60
2018-02-13T17:06:01.770Z,5.65
2018-02-13T17:08:29.750Z,5.82
2018-02-13T17:10:57.781Z,5.59
2018-02-13T17:13:25.720Z,5.64
2018-02-13T17:15:53.765Z,5.40
2018-02-13T17:18:22.233Z,5.57
2018-02-13T17:20:50.187Z,5.59
2018-02-13T17:23:18.263Z,5.48
2018-02-13T17:25:46.247Z,5.44
2018-02-13T17:28:15.266Z,5.61
2018-02-13T17:30:43.202Z,5.56
2018-02-13T17:33:11.162Z,5.42
2018-02-13T17:35:39.166Z,5.62
2018-02-13T17:38:07.203Z,5.50
2018-02-13T17:40:35.195Z,5.53
2018-02-13T17:43:03.847Z,5.65
2018-02-13T17:45:31.759Z,6.04
2018-02-13T17:48:00.160Z,6.13
2018-02-13T17:50:28.092Z,5.76
2018-02-13T17:52:56.058Z,5.64
2018-02-13T17:55:24.003Z,5.97
2018-02-13T17:57:51.974Z,5.76
2018-02-13T18:00:19.921Z,5.78
2018-02-13T18:02:47.937Z,5.77
2018-02-13T18:05:15.953Z,5.66
2018-02-13T18:07:43.958Z,5.47
2018-02-13T18:10:11.962Z,4.90
2018-02-13T18:12:40.014Z,5.62
2018-02-13T18:15:07.998Z,5.55
2018-02-13T18:17:35.988Z,5.66
2018-02-13T18:20:04.376Z,5.91
2018-02-13T18:22:32.302Z,5.72
2018-02-13T18:25:00.338Z,6.14
2018-02-13T18:27:28.323Z,5.71
2018-02-13T18:29:56.338Z,5.60
2018-02-13T18:32:24.411Z,5.60
2018-02-13T18:34:52.401Z,5.66
2018-02-13T18:37:20.517Z,5.90
2018-02-13T18:39:48.542Z,6.40
2018-02-13T18:42:16.445Z,6.41
2018-02-13T18:44:44.425Z,6.42
2018-02-13T18:47:12.398Z,6.79
2018-02-13T18:49:40.359Z,6.85
2018-02-13T18:54:36.141Z,6.04
2018-02-13T18:57:04.137Z,6.26
2018-02-13T18:59:32.094Z,6.11
2018-02-13T19:02:00.113Z,6.05
2018-02-13T19:04:28.145Z,6.16
2018-02-13T19:06:56.102Z,6.35
2018-02-13T19:09:24.016Z,5.72
2018-02-13T19:11:51.982Z,6.11
2018-02-13T19:14:20.021Z,6.10
2018-02-13T19:19:15.943Z,5.73
2018-02-13T19:21:44.895Z,5.87
2018-02-13T19:24:12.909Z,5.91
2018-02-13T19:26:40.907Z,6.44
2018-02-13T19:29:08.832Z,6.43
2018-02-13T19:31:36.787Z,6.61
2018-02-13T19:34:04.694Z,6.72
2018-02-13T19:36:32.706Z,6.35
2018-02-13T19:39:00.662Z,6.56
2018-02-13T19:41:28.667Z,6.83
2018-02-13T19:43:56.682Z,6.84
2018-02-13T19:46:24.703Z,6.54
2018-02-13T19:48:52.723Z,6.51
2018-02-13T19:51:20.690Z,6.45
2018-02-13T19:53:48.719Z,6.32
2018-02-13T19:56:16.679Z,6.45
2018-02-13T19:58:44.715Z,6.73
2018-02-13T20:01:12.707Z,6.82
2018-02-13T20:03:40.709Z,6.48
2018-02-13T20:06:08.662Z,6.30
2018-02-13T20:08:36.602Z,6.30
2018-02-13T20:11:04.506Z,6.30
2018-02-13T20:13:32.426Z,6.26
2018-02-13T20:16:00.510Z,6.35
2018-02-13T20:18:28.470Z,6.73
2018-02-13T20:20:56.446Z,6.67
2018-02-13T20:23:24.839Z,6.98
2018-02-13T20:25:52.842Z,6.86
2018-02-13T20:28:20.729Z,7.00
2018-02-13T20:30:48.708Z,7.08
2018-02-13T20:33:16.699Z,7.11
2018-02-13T20:35:44.682Z,7.30
2018-02-13T20:38:12.676Z,7.20
2018-02-13T20:40:41.412Z,7.27
2018-02-13T20:43:09.395Z,6.92
2018-02-13T20:45:37.282Z,6.93
2018-02-13T20:48:05.209Z,7.28
2018-02-13T20:50:33.242Z,7.43
2018-02-13T20:53:01.215Z,7.35
2018-02-13T20:55:29.230Z,7.51
2018-02-13T20:57:58.354Z,7.65
2018-02-13T21:00:27.142Z,7.61
2018-02-13T21:02:55.152Z,7.19
2018-02-13T21:05:23.149Z,7.50
2018-02-13T21:07:51.110Z,7.41
2018-02-13T21:10:19.122Z,7.63
2018-02-13T21:12:47.146Z,7.52
2018-02-13T21:15:15.158Z,7.07
2018-02-13T21:17:43.166Z,6.97
2018-02-13T21:20:11.118Z,6.61
2018-02-13T21:22:39.188Z,6.72
2018-02-13T21:25:07.522Z,6.72
2018-02-13T21:27:35.537Z,6.59
2018-02-13T21:30:03.550Z,6.98
2018-02-13T21:32:31.565Z,7.12
2018-02-13T21:34:59.530Z,6.85
2018-02-13T21:37:27.469Z,7.24
2018-02-13T21:39:55.446Z,7.09
2018-02-13T21:42:23.427Z,7.12
2018-02-13T21:44:51.339Z,7.38
2018-02-13T21:47:19.323Z,7.27
2018-02-13T21:49:47.433Z,6.94
2018-02-13T21:52:15.414Z,7.08
2018-02-13T21:54:43.414Z,7.04
2018-02-13T21:57:11.834Z,6.90
2018-02-13T21:59:40.197Z,7.33
2018-02-13T22:02:08.486Z,7.07
2018-02-13T22:04:37.163Z,7.45
2018-02-13T22:07:05.640Z,7.40
2018-02-13T22:09:33.953Z,7.32
2018-02-13T22:12:02.395Z,7.46
2018-02-13T22:14:30.588Z,7.50
2018-02-13T22:16:59.048Z,7.45
2018-02-13T22:19:27.635Z,7.46
2018-02-13T22:21:56.010Z,7.30
2018-02-13T22:24:24.495Z,7.21
2018-02-13T22:26:53.018Z,7.35
2018-02-13T22:29:21.346Z,7.27
2018-02-13T22:31:49.930Z,7.12
2018-02-13T22:34:18.189Z,7.12
2018-02-13T22:36:46.994Z,6.94
2018-02-13T22:39:15.457Z,7.33
2018-02-13T22:41:43.860Z,7.29
2018-02-13T22:44:12.131Z,7.62
2018-02-13T22:46:40.589Z,7.67
2018-02-13T22:49:09.304Z,7.29
2018-02-13T22:51:37.677Z,7.28
2018-02-13T22:54:06.050Z,7.11
2018-02-13T22:56:34.539Z,7.36
2018-02-13T22:59:03.218Z,7.30
2018-02-13T23:01:31.884Z,7.48
2018-02-13T23:04:00.282Z,7.44
2018-02-13T23:06:29.072Z,7.39
2018-02-13T23:08:57.651Z,7.68
2018-02-13T23:11:26.037Z,7.71
2018-02-13T23:13:54.609Z,7.71
2018-02-13T23:16:23.077Z,7.68
2018-02-13T23:18:51.465Z,7.79
2018-02-13T23:21:20.050Z,7.72
2018-02-13T23:23:48.434Z,7.61
2018-02-13T23:26:16.705Z,6.83
2018-02-13T23:28:45.389Z,6.71
2018-02-13T23:31:13.765Z,7.16
2018-02-13T23:33:42.248Z,6.46
2018-02-13T23:36:10.530Z,6.44
2018-02-13T23:38:38.901Z,6.65
2018-02-13T23:41:07.177Z,7.03
2018-02-13T23:43:35.689Z,7.08
2018-02-13T23:46:04.141Z,7.12
2018-02-13T23:48:32.618Z,6.91
2018-02-13T23:51:00.999Z,6.64
2018-02-13T23:53:29.476Z,6.44
2018-02-13T23:55:57.758Z,6.70
2018-02-13T23:58:26.423Z,7.10
